Time;durP1;ratioP1;P1;durP2;ratioP2;P2;SDS_P1;SDS_P2;PMS_P1;PMS_P2;Temp;Humidity;BMP_temperature;BMP_pressure;BME280_temperature;BME280_humidity;BME280_pressure;Samples;Min_cycle;Max_cycle;Signal;HPM_P1;HPM_P2
2021/03/30 00:00:00;;;;;;;2.80;2.10;;;18.30;52.30;;;;;;4885332;29;20647;-68
2021/03/30 00:02:25;;;;;;;2.75;1.92;;;18.30;52.30;;;;;;4899789;29;20234;-65
2021/03/30 00:04:51;;;;;;;3.53;1.90;;;18.30;52.30;;;;;;4901021;29;20640;-67
2021/03/30 00:07:17;;;;;;;2.88;1.73;;;18.30;52.30;;;;;;4901041;29;20199;-66
2021/03/30 00:09:43;;;;;;;2.40;1.80;;;18.30;52.30;;;;;;4916927;29;20190;-67
2021/03/30 00:12:09;;;;;;;4.63;2.03;;;18.30;53.00;;;;;;4917642;29;20180;-67
2021/03/30 00:14:34;;;;;;;3.55;1.95;;;18.30;52.30;;;;;;4917129;29;20815;-66
2021/03/30 00:17:00;;;;;;;2.55;1.88;;;18.30;52.30;;;;;;4917004;29;20238;-66
2021/03/30 00:19:26;;;;;;;3.20;1.80;;;18.20;52.30;;;;;;4900466;29;20223;-66
2021/03/30 00:21:51;;;;;;;5.13;2.15;;;18.20;52.30;;;;;;4917389;29;20180;-65
2021/03/30 00:24:17;;;;;;;3.28;1.90;;;18.20;52.30;;;;;;4916926;29;20180;-67
2021/03/30 00:26:42;;;;;;;2.65;1.80;;;18.20;52.90;;;;;;4917194;29;20313;-68
2021/03/30 00:29:08;;;;;;;2.33;1.77;;;18.20;52.30;;;;;;4917408;29;20179;-67
2021/03/30 00:31:33;;;;;;;2.90;1.83;;;18.20;52.30;;;;;;4916401;29;20188;-66
2021/03/30 00:33:59;;;;;;;2.53;1.85;;;18.20;52.20;;;;;;4900488;29;20590;-67
2021/03/30 00:36:25;;;;;;;2.25;1.92;;;18.20;52.30;;;;;;4916643;29;20597;-67
2021/03/30 00:38:50;;;;;;;3.65;1.80;;;18.20;52.20;;;;;;4900182;29;20172;-66
2021/03/30 00:41:16;;;;;;;2.47;1.70;;;18.20;52.20;;;;;;4884874;29;20176;-65
2021/03/30 00:43:41;;;;;;;2.42;2.13;;;18.20;52.20;;;;;;4915857;29;20263;-68
2021/03/30 00:46:17;;;;;;;3.80;2.00;;;18.20;52.20;;;;;;4916877;29;20648;-68
2021/03/30 00:48:47;;;;;;;2.72;1.77;;;18.20;52.20;;;;;;4868755;29;20658;-65
2021/03/30 00:51:13;;;;;;;2.15;1.90;;;18.20;52.20;;;;;;4900247;29;20287;-65
2021/03/30 00:53:39;;;;;;;2.83;2.15;;;18.20;52.20;;;;;;4884082;29;20644;-65
2021/03/30 00:56:05;;;;;;;1.85;1.63;;;18.10;52.10;;;;;;4884283;29;20194;-66
2021/03/30 00:58:30;;;;;;;2.30;1.80;;;18.10;52.80;;;;;;4899233;29;20687;-65
2021/03/30 01:00:56;;;;;;;2.42;2.20;;;18.20;52.20;;;;;;4899944;29;20547;-66
2021/03/30 01:03:22;;;;;;;3.10;2.20;;;18.10;52.10;;;;;;4896290;29;20312;-66
2021/03/30 01:05:47;;;;;;;2.28;2.08;;;18.10;52.10;;;;;;4896101;29;20271;-66
2021/03/30 01:08:38;;;;;;;2.47;1.75;;;18.10;52.10;;;;;;4881144;29;20180;-68
2021/03/30 01:11:43;;;;;;;2.33;2.13;;;18.10;52.10;;;;;;4896628;29;20208;-68
2021/03/30 01:14:27;;;;;;;1.90;1.80;;;18.10;52.10;;;;;;4896762;29;20211;-66
2021/03/30 01:17:08;;;;;;;2.10;1.90;;;18.10;52.10;;;;;;4897826;29;20180;-69
2021/03/30 01:19:55;;;;;;;2.33;1.92;;;18.10;52.10;;;;;;4880243;29;20539;-65
2021/03/30 01:22:42;;;;;;;3.25;2.20;;;18.10;52.10;;;;;;4897410;29;20237;-65
2021/03/30 01:25:08;;;;;;;2.33;1.90;;;18.10;52.10;;;;;;4897502;29;20185;-67
2021/03/30 01:27:50;;;;;;;3.78;2.08;;;18.10;52.10;;;;;;4895798;29;20669;-65
2021/03/30 01:30:16;;;;;;;1.90;1.80;;;18.10;52.10;;;;;;4896486;29;20186;-65
2021/03/30 01:32:44;;;;;;;3.78;1.90;;;18.10;52.10;;;;;;4896794;29;20184;-67
2021/03/30 01:35:11;;;;;;;2.75;2.13;;;18.00;52.00;;;;;;4865193;29;20177;-66
2021/03/30 01:37:44;;;;;;;2.72;2.05;;;18.00;52.00;;;;;;4880686;29;20185;-66
2021/03/30 01:40:11;;;;;;;2.45;1.90;;;18.00;52.00;;;;;;4895818;29;20632;-68
2021/03/30 01:42:37;;;;;;;2.05;1.92;;;18.00;52.00;;;;;;4880397;29;20561;-65
2021/03/30 01:45:03;;;;;;;2.50;2.15;;;18.00;52.00;;;;;;4896102;29;20176;-65
2021/03/30 01:47:29;;;;;;;2.35;2.03;;;18.00;52.00;;;;;;4896485;29;20180;-65
2021/03/30 01:49:55;;;;;;;2.08;1.88;;;18.00;52.00;;;;;;4880837;29;20173;-67
2021/03/30 01:52:20;;;;;;;2.15;1.88;;;18.00;52.60;;;;;;4880515;29;20178;-67
2021/03/30 01:54:48;;;;;;;2.25;2.05;;;18.00;52.00;;;;;;4864554;29;20181;-66
2021/03/30 01:57:14;;;;;;;2.65;2.17;;;18.00;52.00;;;;;;4880528;29;20188;-66
2021/03/30 01:59:41;;;;;;;2.47;1.70;;;18.00;52.00;;;;;;4896909;29;20165;-65
2021/03/30 02:02:07;;;;;;;2.30;2.10;;;17.90;52.00;;;;;;4879749;29;20684;-66
2021/03/30 02:04:33;;;;;;;2.10;1.90;;;18.00;52.00;;;;;;4864923;29;20200;-68
2021/03/30 02:06:59;;;;;;;2.03;1.88;;;18.00;52.00;;;;;;4867885;29;20173;-66
2021/03/30 02:09:29;;;;;;;2.83;2.30;;;17.90;52.00;;;;;;4867836;29;20232;-67
2021/03/30 02:12:09;;;;;;;2.97;2.10;;;18.00;52.00;;;;;;4869111;29;20188;-66
2021/03/30 02:14:35;;;;;;;2.45;2.25;;;17.90;52.00;;;;;;4872165;29;20179;-65
2021/03/30 02:17:03;;;;;;;2.92;2.10;;;17.90;52.00;;;;;;4852687;29;20181;-66
2021/03/30 02:19:42;;;;;;;1.92;1.80;;;17.90;51.90;;;;;;4868741;29;20215;-65
2021/03/30 02:22:16;;;;;;;2.80;2.00;;;17.90;51.90;;;;;;4868880;29;20211;-68
2021/03/30 02:24:41;;;;;;;2.10;1.90;;;17.90;52.00;;;;;;4868550;29;20184;-68
2021/03/30 02:27:08;;;;;;;2.10;1.90;;;17.90;52.60;;;;;;4868422;29;20189;-66
2021/03/30 02:29:34;;;;;;;2.60;2.40;;;17.90;52.00;;;;;;4867656;29;20721;-65
2021/03/30 02:32:02;;;;;;;2.53;2.00;;;17.90;51.90;;;;;;4883970;29;20299;-67
2021/03/30 02:34:28;;;;;;;3.20;2.20;;;17.90;52.00;;;;;;4900407;29;20175;-67
2021/03/30 02:36:56;;;;;;;2.20;2.00;;;17.80;51.90;;;;;;4867916;29;20173;-67
2021/03/30 02:39:22;;;;;;;2.17;1.98;;;17.90;51.90;;;;;;4884037;29;20626;-66
2021/03/30 02:41:48;;;;;;;2.35;1.92;;;17.80;51.90;;;;;;4883414;29;20180;-65
2021/03/30 02:44:13;;;;;;;2.78;2.03;;;17.80;51.90;;;;;;4867653;29;20533;-68
2021/03/30 02:46:40;;;;;;;2.78;2.30;;;17.80;51.90;;;;;;4883412;29;20243;-64
2021/03/30 02:49:06;;;;;;;2.30;1.95;;;17.80;51.90;;;;;;4900181;29;20184;-65
2021/03/30 02:51:31;;;;;;;2.33;2.13;;;17.80;51.90;;;;;;4867532;29;20523;-68
2021/03/30 02:53:57;;;;;;;2.70;2.22;;;17.80;51.90;;;;;;4867890;29;20176;-65
2021/03/30 02:56:23;;;;;;;2.47;1.92;;;17.80;51.90;;;;;;4867771;29;20541;-68
2021/03/30 02:58:52;;;;;;;2.65;2.30;;;17.80;52.20;;;;;;4867475;29;20169;-66
2021/03/30 03:01:20;;;;;;;2.83;2.30;;;17.80;51.90;;;;;;4867917;29;20204;-68
2021/03/30 03:03:45;;;;;;;2.30;2.10;;;17.80;51.80;;;;;;4883423;29;20238;-67
2021/03/30 03:06:11;;;;;;;2.40;2.20;;;17.80;51.90;;;;;;4867164;29;20247;-67
2021/03/30 03:08:37;;;;;;;2.03;1.92;;;17.80;51.90;;;;;;4867495;29;20608;-66
2021/03/30 03:11:02;;;;;;;2.72;2.28;;;17.80;51.90;;;;;;4882912;29;20689;-66
2021/03/30 03:13:28;;;;;;;1.95;1.83;;;17.80;51.90;;;;;;4867433;29;20172;-65
2021/03/30 03:15:54;;;;;;;2.28;2.08;;;17.80;51.90;;;;;;4852196;29;20173;-65
2021/03/30 03:18:19;;;;;;;3.45;2.50;;;17.80;52.60;;;;;;4881149;29;20589;-66
2021/03/30 03:20:49;;;;;;;1.95;1.85;;;17.70;51.80;;;;;;4867635;29;20177;-69
2021/03/30 03:23:14;;;;;;;2.40;2.20;;;17.70;51.80;;;;;;4868001;29;20212;-68
2021/03/30 03:25:40;;;;;;;2.55;2.10;;;17.70;51.80;;;;;;4866551;29;20704;-63
2021/03/30 03:28:06;;;;;;;3.00;2.30;;;17.70;51.80;;;;;;4867714;29;20179;-64
2021/03/30 03:30:32;;;;;;;2.88;2.08;;;17.70;51.80;;;;;;4867125;29;20539;-67
2021/03/30 03:33:07;;;;;;;2.63;2.40;;;17.70;51.90;;;;;;4882301;29;20180;-67
2021/03/30 03:35:32;;;;;;;2.65;2.45;;;17.70;51.80;;;;;;4882624;29;20175;-66
2021/03/30 03:37:58;;;;;;;2.03;1.83;;;17.70;51.90;;;;;;4882677;29;20176;-66
2021/03/30 03:40:23;;;;;;;2.13;1.98;;;17.70;51.80;;;;;;4881755;29;20267;-65
2021/03/30 03:42:49;;;;;;;2.70;2.00;;;17.70;51.80;;;;;;4899246;29;20216;-65
2021/03/30 03:45:15;;;;;;;2.95;2.55;;;17.70;51.80;;;;;;4882663;29;20637;-65
2021/03/30 03:47:40;;;;;;;1.90;1.80;;;17.70;51.80;;;;;;4898370;29;20210;-64
2021/03/30 03:50:07;;;;;;;2.05;1.80;;;17.70;51.80;;;;;;4882325;29;20184;-64
2021/03/30 03:52:34;;;;;;;2.47;2.10;;;17.70;51.80;;;;;;4899043;29;20191;-65
2021/03/30 03:54:59;;;;;;;2.28;2.08;;;17.70;51.80;;;;;;4866362;29;20168;-66
2021/03/30 03:57:28;;;;;;;2.38;2.17;;;17.70;51.80;;;;;;4882394;29;20236;-66
2021/03/30 03:59:54;;;;;;;2.10;2.00;;;17.70;51.80;;;;;;4867160;29;20173;-65
2021/03/30 04:02:24;;;;;;;3.20;2.20;;;17.60;51.80;;;;;;4881387;29;20216;-66
2021/03/30 04:04:50;;;;;;;3.10;2.25;;;17.60;51.80;;;;;;4882547;29;20223;-67
2021/03/30 04:07:19;;;;;;;2.92;2.50;;;17.60;51.80;;;;;;4882090;29;20732;-66
2021/03/30 04:09:48;;;;;;;2.42;2.22;;;17.60;51.80;;;;;;4851380;29;20180;-65
2021/03/30 04:12:15;;;;;;;2.33;2.13;;;17.60;51.80;;;;;;4882150;29;20529;-68
2021/03/30 04:14:41;;;;;;;2.55;2.35;;;17.60;51.80;;;;;;4881337;29;20196;-69
2021/03/30 04:17:06;;;;;;;2.20;2.00;;;17.60;51.80;;;;;;4882071;29;20234;-65
2021/03/30 04:19:37;;;;;;;2.67;2.30;;;17.60;51.80;;;;;;4881757;29;20180;-68
2021/03/30 04:22:03;;;;;;;2.30;2.10;;;17.60;51.70;;;;;;4881953;29;20204;-67
2021/03/30 04:24:29;;;;;;;2.63;2.33;;;17.60;51.70;;;;;;4898244;29;20223;-64
2021/03/30 04:26:54;;;;;;;3.17;2.55;;;17.60;51.80;;;;;;4898779;29;20200;-67
2021/03/30 04:29:20;;;;;;;2.60;2.35;;;17.60;51.70;;;;;;4897399;29;20176;-64
2021/03/30 04:31:45;;;;;;;2.33;2.13;;;17.60;51.70;;;;;;4898548;29;20233;-66
2021/03/30 04:34:11;;;;;;;2.47;2.30;;;17.60;51.70;;;;;;4898351;29;20539;-66
2021/03/30 04:36:36;;;;;;;2.72;2.53;;;17.60;51.80;;;;;;4897677;29;20219;-65
2021/03/30 04:39:02;;;;;;;2.58;2.38;;;17.50;51.70;;;;;;4898278;29;20264;-63
2021/03/30 04:41:28;;;;;;;2.60;2.40;;;17.60;51.70;;;;;;4898090;29;20547;-64
2021/03/30 04:43:54;;;;;;;2.55;2.35;;;17.50;51.70;;;;;;4897472;29;20692;-65
2021/03/30 04:46:19;;;;;;;2.38;2.17;;;17.50;51.70;;;;;;4898100;29;20173;-67
2021/03/30 04:48:45;;;;;;;2.95;2.38;;;17.50;51.70;;;;;;4881609;29;20180;-64
2021/03/30 04:51:10;;;;;;;2.60;2.40;;;17.50;51.70;;;;;;4897474;29;20664;-64
2021/03/30 04:53:36;;;;;;;2.60;2.40;;;17.50;51.70;;;;;;4881175;29;20247;-65
2021/03/30 04:56:02;;;;;;;2.30;2.20;;;17.50;51.70;;;;;;4897984;29;20179;-65
2021/03/30 04:58:28;;;;;;;2.70;2.50;;;17.50;51.70;;;;;;4880636;29;20200;-66
2021/03/30 05:00:54;;;;;;;2.38;2.17;;;17.50;51.70;;;;;;4865613;29;20752;-67
2021/03/30 05:03:19;;;;;;;2.30;2.10;;;17.50;51.70;;;;;;4897485;29;20235;-65
2021/03/30 05:05:45;;;;;;;2.60;2.40;;;17.50;51.70;;;;;;4880739;29;20216;-68
2021/03/30 05:08:10;;;;;;;2.53;2.33;;;17.50;51.70;;;;;;4881242;29;20184;-67
2021/03/30 05:10:36;;;;;;;4.60;3.00;;;17.50;51.70;;;;;;4880424;29;20231;-65
2021/03/30 05:13:01;;;;;;;2.78;2.58;;;17.50;51.60;;;;;;4897706;29;20264;-69
2021/03/30 05:15:27;;;;;;;2.72;2.50;;;17.50;51.50;;;;;;4865374;29;20169;-67
2021/03/30 05:17:53;;;;;;;4.00;2.70;;;17.50;51.50;;;;;;4897166;29;20203;-67
2021/03/30 05:20:18;;;;;;;2.90;2.40;;;17.50;51.50;;;;;;4897568;29;20171;-65
2021/03/30 05:22:44;;;;;;;2.60;2.40;;;17.60;51.50;;;;;;4897589;29;20219;-69
2021/03/30 05:25:10;;;;;;;2.55;2.35;;;17.60;51.50;;;;;;4880211;29;20180;-65
2021/03/30 05:27:36;;;;;;;2.60;2.40;;;17.50;51.50;;;;;;4897268;29;20188;-63
2021/03/30 05:30:03;;;;;;;2.80;2.60;;;17.60;51.50;;;;;;4897609;29;20195;-67
2021/03/30 05:32:28;;;;;;;2.78;2.58;;;17.50;51.50;;;;;;4896952;29;20173;-66
2021/03/30 05:34:54;;;;;;;3.13;2.83;;;17.50;51.40;;;;;;4865272;29;20239;-67
2021/03/30 05:37:20;;;;;;;2.83;2.55;;;17.50;51.40;;;;;;4880713;29;20649;-66
2021/03/30 05:39:45;;;;;;;3.25;2.95;;;17.50;51.40;;;;;;4879979;29;20267;-65
2021/03/30 05:42:15;;;;;;;3.22;2.92;;;17.50;51.40;;;;;;4864697;29;20208;-66
2021/03/30 05:44:42;;;;;;;2.92;2.60;;;17.50;51.30;;;;;;4865087;29;20180;-68
2021/03/30 05:50:00;;;;;;;5.00;2.60;;;17.50;51.40;;;;;;4880536;29;20189;-68
2021/03/30 05:52:42;;;;;;;2.55;2.35;;;17.50;51.40;;;;;;4897217;29;20179;-65
2021/03/30 05:55:08;;;;;;;3.30;2.85;;;17.50;52.00;;;;;;4896596;29;20531;-67
2021/03/30 05:57:33;;;;;;;2.92;2.65;;;17.50;51.90;;;;;;4865043;29;20192;-63
2021/03/30 05:59:59;;;;;;;3.40;2.72;;;17.50;51.70;;;;;;4864421;29;20264;-65
2021/03/30 06:02:30;;;;;;;3.03;2.58;;;17.50;51.70;;;;;;4879845;29;20375;-65
2021/03/30 06:04:56;;;;;;;3.72;2.75;;;17.60;51.60;;;;;;4880775;29;20173;-63
2021/03/30 06:07:22;;;;;;;2.95;2.75;;;17.60;52.00;;;;;;4864276;29;20251;-68
2021/03/30 06:09:48;;;;;;;4.45;3.63;;;17.60;51.80;;;;;;4897321;29;20644;-65
2021/03/30 06:12:14;;;;;;;3.97;3.42;;;17.60;51.80;;;;;;4880504;29;20233;-68
2021/03/30 06:14:44;;;;;;;4.03;3.40;;;17.60;52.50;;;;;;4879667;29;20199;-67
2021/03/30 06:17:14;;;;;;;5.60;3.47;;;17.50;52.30;;;;;;4881101;29;20262;-68
2021/03/30 06:19:56;;;;;;;8.30;3.60;;;17.60;52.30;;;;;;4896763;29;20591;-69
2021/03/30 06:22:26;;;;;;;4.93;3.53;;;17.60;52.30;;;;;;4864964;29;20205;-67
2021/03/30 06:24:53;;;;;;;8.43;3.53;;;17.60;53.00;;;;;;4864908;29;20185;-65
2021/03/30 06:27:28;;;;;;;6.57;3.75;;;17.60;52.30;;;;;;4880446;29;20533;-62
2021/03/30 06:29:55;;;;;;;4.22;3.38;;;17.60;52.10;;;;;;4879675;29;20198;-62
2021/03/30 06:32:23;;;;;;;5.20;3.78;;;17.60;52.40;;;;;;4880327;29;20232;-64
2021/03/30 06:34:51;;;;;;;5.40;4.32;;;17.60;52.40;;;;;;4880144;29;20228;-64
2021/03/30 06:37:26;;;;;;;17.42;12.43;;;17.60;51.90;;;;;;4864540;29;20173;-64
2021/03/30 06:39:51;;;;;;;15.13;11.85;;;17.50;49.50;;;;;;4896888;29;20172;-63
2021/03/30 06:42:37;;;;;;;18.10;10.88;;;17.50;48.80;;;;;;4879757;29;20204;-66
2021/03/30 06:45:10;;;;;;;12.65;8.93;;;17.50;49.30;;;;;;4896853;29;20192;-67
2021/03/30 06:47:36;;;;;;;11.05;7.45;;;17.50;49.90;;;;;;4865410;29;20283;-64
2021/03/30 06:50:08;;;;;;;9.90;8.55;;;17.50;50.20;;;;;;4864182;29;20688;-69
2021/03/30 06:52:35;;;;;;;11.80;8.60;;;17.50;50.00;;;;;;4882223;29;20263;-64
2021/03/30 06:55:02;;;;;;;9.73;8.18;;;17.50;49.80;;;;;;4867972;29;20176;-64
2021/03/30 06:57:47;;;;;;;10.70;8.55;;;17.60;49.70;;;;;;4867266;29;20259;-67
2021/03/30 07:00:14;;;;;;;8.88;7.95;;;17.70;49.60;;;;;;4867565;29;20176;-63
2021/03/30 07:02:42;;;;;;;10.20;8.20;;;17.70;49.70;;;;;;4899569;29;20239;-63
2021/03/30 07:05:09;;;;;;;8.35;7.20;;;17.70;49.60;;;;;;4867198;29;20200;-63
2021/03/30 07:07:35;;;;;;;8.18;6.78;;;17.80;49.70;;;;;;4867794;29;20283;-62
2021/03/30 07:10:01;;;;;;;8.48;6.97;;;17.80;49.90;;;;;;4899919;29;20593;-62
2021/03/30 07:12:26;;;;;;;8.00;6.78;;;17.80;49.80;;;;;;4851302;29;20629;-63
2021/03/30 07:14:52;;;;;;;8.30;6.50;;;17.80;49.80;;;;;;4883062;29;20181;-68
2021/03/30 07:17:27;;;;;;;7.20;6.20;;;17.80;49.80;;;;;;4899490;29;20173;-64
2021/03/30 07:19:54;;;;;;;8.00;5.95;;;17.80;49.90;;;;;;4852403;29;20731;-64
2021/03/30 07:22:23;;;;;;;6.68;5.93;;;17.80;49.90;;;;;;4882682;29;20204;-64
2021/03/30 07:24:56;;;;;;;7.18;5.82;;;17.80;50.00;;;;;;4882528;29;20180;-63
2021/03/30 07:27:24;;;;;;;8.35;5.50;;;17.90;50.10;;;;;;4882622;29;20217;-62
2021/03/30 07:29:50;;;;;;;6.10;5.35;;;17.80;50.10;;;;;;4867494;29;20710;-63
2021/03/30 07:32:37;;;;;;;5.63;5.03;;;17.90;50.20;;;;;;4882261;29;20268;-68
2021/03/30 07:35:20;;;;;;;5.85;5.20;;;17.90;50.30;;;;;;4868972;29;20169;-64
2021/03/30 07:38:06;;;;;;;7.70;5.07;;;17.90;50.40;;;;;;4882534;29;20579;-65
2021/03/30 07:40:31;;;;;;;5.10;4.35;;;17.90;50.40;;;;;;4898628;29;20168;-64
2021/03/30 07:42:57;;;;;;;4.70;4.30;;;17.90;50.50;;;;;;4867210;29;20204;-63
2021/03/30 07:45:26;;;;;;;5.10;4.55;;;18.00;51.20;;;;;;4881677;29;20183;-67
2021/03/30 07:47:52;;;;;;;6.13;4.65;;;18.00;50.60;;;;;;4882456;29;20589;-66
2021/03/30 07:50:23;;;;;;;4.78;4.28;;;18.00;50.60;;;;;;4866991;29;20625;-68
2021/03/30 07:52:54;;;;;;;5.10;4.57;;;18.00;50.70;;;;;;4866720;29;20228;-63
2021/03/30 07:55:21;;;;;;;5.35;4.10;;;18.00;50.70;;;;;;4868107;29;20173;-67
2021/03/30 07:58:07;;;;;;;5.43;4.78;;;18.00;50.80;;;;;;4882534;29;20177;-64
2021/03/30 08:00:33;;;;;;;4.78;4.28;;;18.00;50.80;;;;;;4898199;29;20180;-67
2021/03/30 08:03:07;;;;;;;4.80;4.07;;;18.00;50.80;;;;;;4900154;29;20235;-64
2021/03/30 08:05:33;;;;;;;6.00;4.00;;;18.00;50.90;;;;;;4881925;29;20608;-63
2021/03/30 08:07:59;;;;;;;5.43;4.28;;;18.10;50.90;;;;;;4898277;29;20252;-67
2021/03/30 08:10:33;;;;;;;6.07;4.43;;;18.10;51.00;;;;;;4881871;29;20177;-67
2021/03/30 08:13:20;;;;;;;6.00;4.65;;;18.10;51.00;;;;;;4881854;29;20244;-68
2021/03/30 08:15:47;;;;;;;6.07;4.35;;;18.20;51.10;;;;;;4898067;29;20173;-63
2021/03/30 08:18:13;;;;;;;4.90;4.22;;;18.20;51.10;;;;;;4882357;29;20176;-65
2021/03/30 08:20:57;;;;;;;5.40;4.22;;;18.20;51.10;;;;;;4865745;29;20184;-66
2021/03/30 08:23:24;;;;;;;5.22;4.40;;;18.20;51.10;;;;;;4881777;29;20287;-67
2021/03/30 08:25:53;;;;;;;5.32;4.15;;;18.20;51.20;;;;;;4866277;29;20180;-62
2021/03/30 08:28:56;;;;;;;6.60;4.55;;;18.30;51.40;;;;;;4881612;29;20533;-62
2021/03/30 08:31:25;;;;;;;6.00;4.60;;;18.30;51.40;;;;;;4898197;29;20530;-64
2021/03/30 08:33:53;;;;;;;5.50;4.53;;;18.30;51.40;;;;;;4866504;29;20177;-63
2021/03/30 08:36:20;;;;;;;4.45;4.03;;;18.30;51.50;;;;;;4850088;29;20176;-64
2021/03/30 08:38:48;;;;;;;5.47;4.10;;;18.30;51.40;;;;;;4881413;29;20177;-64
2021/03/30 08:41:43;;;;;;;4.65;4.18;;;18.40;51.50;;;;;;4898246;29;20542;-62
2021/03/30 08:44:13;;;;;;;6.50;4.32;;;18.40;51.50;;;;;;4864770;29;20228;-67
2021/03/30 08:46:40;;;;;;;4.85;3.50;;;18.40;51.50;;;;;;4881238;29;20183;-65
2021/03/30 08:49:34;;;;;;;4.38;3.97;;;18.40;51.60;;;;;;4897439;29;20180;-63
2021/03/30 08:52:11;;;;;;;5.93;4.30;;;18.40;51.60;;;;;;4881379;29;20172;-69
2021/03/30 08:54:38;;;;;;;4.22;3.70;;;18.40;51.70;;;;;;4880941;29;20600;-63
2021/03/30 08:57:08;;;;;;;3.75;3.45;;;18.40;51.70;;;;;;4897388;29;20169;-67
2021/03/30 08:59:34;;;;;;;8.82;6.07;;;18.50;51.80;;;;;;4897631;29;20184;-63
2021/03/30 09:02:02;;;;;;;10.65;7.75;;;18.50;51.80;;;;;;4897902;29;20165;-63
2021/03/30 09:04:37;;;;;;;6.97;4.82;;;18.40;51.60;;;;;;4864908;29;20706;-63
2021/03/30 09:07:03;;;;;;;9.13;5.93;;;18.50;51.90;;;;;;4865921;29;20263;-72
2021/03/30 09:09:36;;;;;;;9.13;5.72;;;18.50;51.90;;;;;;4880946;29;20637;-72
2021/03/30 09:12:06;;;;;;;6.63;5.97;;;18.50;52.00;;;;;;4881450;29;20177;-71
2021/03/30 09:14:32;;;;;;;6.75;5.15;;;18.50;52.10;;;;;;4880595;29;20705;-71
2021/03/30 09:17:08;;;;;;;7.50;5.10;;;18.50;52.20;;;;;;4879696;29;20184;-72
2021/03/30 09:19:43;;;;;;;8.80;5.40;;;18.60;52.40;;;;;;4880289;29;20175;-63
2021/03/30 09:22:24;;;;;;;7.28;4.50;;;18.60;52.40;;;;;;4897553;29;20262;-72
2021/03/30 09:27:25;;;;;;;5.80;4.40;;;18.60;52.40;;;;;;4880923;29;20593;-75
2021/03/30 09:29:54;;;;;;;6.25;4.28;;;18.60;52.50;;;;;;4865589;29;20173;-69
2021/03/30 09:32:20;;;;;;;4.95;4.15;;;18.60;52.60;;;;;;4896845;29;20181;-73
2021/03/30 09:34:46;;;;;;;5.00;4.15;;;18.70;52.60;;;;;;4864966;29;20553;-75
2021/03/30 09:37:12;;;;;;;6.07;3.78;;;18.70;52.70;;;;;;4880744;29;20177;-68
2021/03/30 09:39:37;;;;;;;8.23;4.22;;;18.70;52.60;;;;;;4879878;29;20700;-67
2021/03/30 09:42:04;;;;;;;5.25;3.95;;;18.70;52.70;;;;;;4897579;29;20663;-67
2021/03/30 09:44:38;;;;;;;5.47;4.22;;;18.70;52.60;;;;;;4880360;29;20181;-69
2021/03/30 09:47:03;;;;;;;3.85;3.42;;;18.80;52.60;;;;;;4865424;29;20168;-62
2021/03/30 09:49:29;;;;;;;9.45;4.32;;;18.80;52.50;;;;;;4863141;29;20172;-62
2021/03/30 09:51:55;;;;;;;4.55;3.78;;;18.80;52.50;;;;;;4866083;29;20652;-62
2021/03/30 09:54:28;;;;;;;4.45;3.47;;;18.80;52.50;;;;;;4874623;29;20169;-63
2021/03/30 09:56:59;;;;;;;6.55;3.92;;;18.90;52.60;;;;;;4877604;29;20166;-64
2021/03/30 09:59:24;;;;;;;4.90;4.38;;;18.90;52.50;;;;;;4877718;29;20665;-61
2021/03/30 10:01:50;;;;;;;5.35;3.40;;;18.90;52.40;;;;;;4846521;29;20174;-62
2021/03/30 10:04:16;;;;;;;5.30;3.83;;;19.00;52.40;;;;;;4859241;29;20747;-62
2021/03/30 10:06:41;;;;;;;6.80;3.85;;;19.00;52.30;;;;;;4878485;29;20174;-61
2021/03/30 10:09:07;;;;;;;4.53;4.07;;;19.00;52.30;;;;;;4896034;29;20399;-62
2021/03/30 10:11:33;;;;;;;4.15;3.70;;;19.00;52.20;;;;;;4897198;29;20169;-63
2021/03/30 10:14:26;;;;;;;4.25;3.85;;;19.10;52.20;;;;;;4895741;29;20260;-70
2021/03/30 10:16:58;;;;;;;3.67;3.15;;;19.10;52.20;;;;;;4895996;29;20261;-71
2021/03/30 10:19:24;;;;;;;3.90;3.50;;;19.10;52.10;;;;;;4895755;29;20177;-63
2021/03/30 10:21:54;;;;;;;4.65;3.25;;;19.20;52.10;;;;;;4895333;29;20176;-66
2021/03/30 10:24:20;;;;;;;3.97;3.58;;;19.20;52.10;;;;;;4890158;29;20688;-62
2021/03/30 10:27:06;;;;;;;4.85;3.72;;;19.20;52.10;;;;;;4879170;29;20177;-63
2021/03/30 10:29:41;;;;;;;5.97;3.88;;;19.30;52.10;;;;;;4880121;29;20184;-67
2021/03/30 10:32:10;;;;;;;5.40;3.85;;;19.20;52.00;;;;;;4880741;29;20313;-65
2021/03/30 10:34:35;;;;;;;5.47;3.72;;;19.30;52.00;;;;;;4864128;29;20219;-67
2021/03/30 10:37:05;;;;;;;4.80;3.72;;;19.30;52.00;;;;;;4881819;29;20205;-63
2021/03/30 10:39:42;;;;;;;4.32;3.92;;;19.30;51.90;;;;;;4881504;29;20177;-66
2021/03/30 10:42:18;;;;;;;5.30;4.20;;;19.30;51.90;;;;;;4879850;29;20181;-68
2021/03/30 10:44:55;;;;;;;5.72;3.90;;;19.40;51.90;;;;;;4880292;29;20187;-68
2021/03/30 10:47:22;;;;;;;5.55;3.90;;;19.30;51.80;;;;;;4880265;29;20177;-66
2021/03/30 10:49:49;;;;;;;6.00;3.95;;;19.40;51.80;;;;;;4879680;29;20204;-67
2021/03/30 10:52:27;;;;;;;5.00;4.13;;;19.40;51.80;;;;;;4880458;29;20672;-69
2021/03/30 10:54:55;;;;;;;6.43;4.40;;;19.40;51.70;;;;;;4881329;29;20264;-64
2021/03/30 10:57:22;;;;;;;5.00;4.50;;;19.40;51.70;;;;;;4879567;29;20173;-68
2021/03/30 10:59:47;;;;;;;6.15;4.20;;;19.40;51.60;;;;;;4880177;29;20188;-67
2021/03/30 11:02:13;;;;;;;8.25;4.63;;;19.50;51.60;;;;;;4880057;29;20177;-73
2021/03/30 11:04:39;;;;;;;7.03;4.38;;;19.50;51.60;;;;;;4871139;29;20332;-74
2021/03/30 11:07:05;;;;;;;7.65;5.25;;;19.50;51.50;;;;;;4899946;29;20176;-60
2021/03/30 11:09:31;;;;;;;5.13;3.97;;;19.60;52.10;;;;;;4898037;29;20552;-61
2021/03/30 11:11:57;;;;;;;8.13;4.32;;;19.60;51.40;;;;;;4899794;29;20663;-61
2021/03/30 11:14:23;;;;;;;6.85;4.70;;;19.60;51.40;;;;;;4882986;29;20267;-62
2021/03/30 11:16:49;;;;;;;9.77;5.60;;;19.60;51.40;;;;;;4899347;29;20253;-62
2021/03/30 11:19:15;;;;;;;7.93;5.63;;;19.60;51.20;;;;;;4898735;29;20176;-68
2021/03/30 11:21:40;;;;;;;8.75;6.00;;;19.60;50.90;;;;;;4898400;29;20183;-69
2021/03/30 11:24:07;;;;;;;11.75;7.50;;;19.60;50.90;;;;;;4897756;29;20231;-66
2021/03/30 11:26:34;;;;;;;9.98;6.68;;;19.60;50.70;;;;;;4898909;29;20195;-69
2021/03/30 11:29:01;;;;;;;10.02;7.43;;;19.60;50.50;;;;;;4899592;29;20228;-68
2021/03/30 11:34:15;;;;;;;9.75;7.70;;;19.60;50.30;;;;;;4898544;29;20204;-67
2021/03/30 11:36:42;;;;;;;9.73;7.07;;;19.70;50.40;;;;;;4899260;29;20173;-68
2021/03/30 11:39:08;;;;;;;8.98;7.40;;;19.70;50.40;;;;;;4896731;29;20169;-62
2021/03/30 11:41:34;;;;;;;9.90;6.97;;;19.70;50.40;;;;;;4899208;29;20712;-61
2021/03/30 11:43:59;;;;;;;9.00;6.82;;;19.70;50.40;;;;;;4899155;29;20236;-68
2021/03/30 11:46:25;;;;;;;9.02;6.47;;;19.80;50.40;;;;;;4897449;29;20172;-62
2021/03/30 11:48:51;;;;;;;7.70;6.72;;;19.80;50.40;;;;;;4898042;29;20645;-61
2021/03/30 11:51:16;;;;;;;8.68;7.00;;;19.80;50.40;;;;;;4899343;29;20252;-60
2021/03/30 11:53:44;;;;;;;8.25;6.53;;;19.80;50.50;;;;;;4898316;29;20675;-70
2021/03/30 11:56:10;;;;;;;11.05;6.53;;;19.80;50.40;;;;;;4897949;29;20530;-69
2021/03/30 11:58:36;;;;;;;10.07;6.35;;;19.90;50.50;;;;;;4892898;29;20184;-63
2021/03/30 12:01:02;;;;;;;7.03;5.68;;;19.90;50.30;;;;;;4898948;29;20512;-65
2021/03/30 12:03:28;;;;;;;10.80;6.38;;;20.00;50.30;;;;;;4881737;29;20228;-68
2021/03/30 12:05:53;;;;;;;8.35;6.32;;;20.00;50.30;;;;;;4881131;29;20229;-68
2021/03/30 12:08:19;;;;;;;10.65;6.03;;;20.00;50.20;;;;;;4879983;29;20765;-62
2021/03/30 12:10:44;;;;;;;10.07;5.85;;;20.00;50.20;;;;;;4880211;29;20576;-64
2021/03/30 12:13:10;;;;;;;7.63;5.47;;;20.00;50.30;;;;;;4862776;29;20181;-62
2021/03/30 12:15:35;;;;;;;5.97;4.75;;;20.00;51.10;;;;;;4879705;29;20189;-62
2021/03/30 12:18:01;;;;;;;6.97;4.22;;;20.00;50.40;;;;;;4863491;29;20185;-67
2021/03/30 12:20:27;;;;;;;6.53;4.57;;;20.00;50.50;;;;;;4862578;29;20717;-62
2021/03/30 12:22:52;;;;;;;6.32;4.72;;;20.10;50.60;;;;;;4863376;29;20577;-67
2021/03/30 12:25:18;;;;;;;7.53;4.13;;;20.10;50.60;;;;;;4863239;29;20173;-70
2021/03/30 12:27:43;;;;;;;6.35;4.35;;;20.10;50.60;;;;;;4879363;29;20173;-64
2021/03/30 12:30:10;;;;;;;5.05;3.88;;;20.10;50.60;;;;;;4879856;29;20630;-70
2021/03/30 12:32:35;;;;;;;6.75;4.38;;;20.10;50.70;;;;;;4863304;29;20182;-63
2021/03/30 12:35:02;;;;;;;5.85;3.97;;;20.10;50.70;;;;;;4862541;29;20188;-65
2021/03/30 12:37:27;;;;;;;5.30;3.35;;;20.10;50.70;;;;;;4879506;29;20193;-62
2021/03/30 12:39:53;;;;;;;4.65;3.40;;;20.20;50.80;;;;;;4862980;29;20215;-62
2021/03/30 12:42:19;;;;;;;5.43;3.78;;;20.20;50.70;;;;;;4862189;29;20177;-61
2021/03/30 12:44:44;;;;;;;7.45;3.60;;;20.30;50.60;;;;;;4862962;29;20177;-71
2021/03/30 12:47:10;;;;;;;5.53;4.30;;;20.30;50.50;;;;;;4879681;29;20582;-67
2021/03/30 12:49:36;;;;;;;6.53;4.53;;;20.30;50.30;;;;;;4862069;29;20181;-62
2021/03/30 12:52:01;;;;;;;7.30;4.70;;;20.30;49.90;;;;;;4879523;29;20534;-71
2021/03/30 12:54:27;;;;;;;4.80;4.22;;;20.30;49.70;;;;;;4862695;29;20178;-61
2021/03/30 12:56:53;;;;;;;5.93;4.80;;;20.30;49.60;;;;;;4862234;29;20191;-62
2021/03/30 12:59:18;;;;;;;7.30;4.25;;;20.30;49.40;;;;;;4875182;29;20711;-62